createdAt,value
2018-05-09T00:01:59.283Z,101367.04
2018-05-09T00:04:26.859Z,101362.39
2018-05-09T00:06:54.466Z,101370.31
2018-05-09T00:09:21.994Z,101368.62
2018-05-09T00:11:49.700Z,101370.02
2018-05-09T00:14:17.359Z,101375.73
2018-05-09T00:16:45.035Z,101373.62
2018-05-09T00:19:12.851Z,101377.16
2018-05-09T00:21:40.449Z,101376.20
2018-05-09T00:24:07.992Z,101376.11
2018-05-09T00:26:35.552Z,101376.39
2018-05-09T00:29:03.143Z,101377.94
2018-05-09T00:31:30.981Z,101374.66
2018-05-09T00:33:58.744Z,101370.54
2018-05-09T00:36:26.591Z,101374.66
2018-05-09T00:38:54.181Z,101380.13
2018-05-09T00:41:21.726Z,101376.92
2018-05-09T00:43:49.319Z,101376.70
2018-05-09T00:46:17.187Z,101382.58
2018-05-09T00:48:45.136Z,101380.25
2018-05-09T00:51:12.990Z,101383.11
2018-05-09T00:53:40.623Z,101386.88
2018-05-09T00:56:08.690Z,101379.80
2018-05-09T00:58:36.299Z,101383.98
2018-05-09T01:01:03.908Z,101383.39
2018-05-09T01:03:31.665Z,101381.12
2018-05-09T01:05:59.539Z,101381.51
2018-05-09T01:08:27.309Z,101384.81
2018-05-09T01:10:55.041Z,101382.61
2018-05-09T01:13:22.676Z,101384.70
2018-05-09T01:15:50.229Z,101385.46
2018-05-09T01:18:17.755Z,101381.52
2018-05-09T01:20:45.314Z,101380.09
2018-05-09T01:23:12.976Z,101374.84
2018-05-09T01:25:40.711Z,101374.77
2018-05-09T01:28:09.428Z,101377.33
2018-05-09T01:30:37.218Z,101372.94
2018-05-09T01:33:04.749Z,101376.39
2018-05-09T01:35:32.292Z,101366.89
2018-05-09T01:37:59.911Z,101366.97
2018-05-09T01:40:28.516Z,101376.30
2018-05-09T01:42:56.159Z,101375.63
2018-05-09T01:45:28.385Z,101374.43
2018-05-09T01:47:55.981Z,101370.64
2018-05-09T01:50:23.588Z,101371.55
2018-05-09T01:52:51.143Z,101372.02
2018-05-09T01:55:18.722Z,101367.28
2018-05-09T01:57:46.561Z,101371.99
2018-05-09T02:00:14.440Z,101364.59
2018-05-09T02:02:43.060Z,101355.41
2018-05-09T02:05:10.596Z,101357.95
2018-05-09T02:07:38.165Z,101354.48
2018-05-09T02:10:05.748Z,101357.05
2018-05-09T02:12:33.294Z,101352.65
2018-05-09T02:15:00.921Z,101353.91
2018-05-09T02:17:28.637Z,101354.78
2018-05-09T02:19:56.300Z,101354.36
2018-05-09T02:22:23.832Z,101344.42
2018-05-09T02:24:51.417Z,101348.36
2018-05-09T02:27:19.002Z,101345.78
2018-05-09T02:29:46.729Z,101340.98
2018-05-09T02:32:14.624Z,101345.78
2018-05-09T02:34:42.654Z,101348.06
2018-05-09T02:37:10.452Z,101351.23
2018-05-09T02:39:37.989Z,101350.00
2018-05-09T02:42:05.575Z,101346.11
2018-05-09T02:44:33.208Z,101339.14
2018-05-09T02:47:00.835Z,101346.56
2018-05-09T02:49:28.605Z,101337.45
2018-05-09T02:51:56.248Z,101333.09
2018-05-09T02:54:24.000Z,101330.46
2018-05-09T02:56:51.563Z,101326.52
2018-05-09T02:59:19.185Z,101325.24
2018-05-09T03:01:46.748Z,101327.41
2018-05-09T03:04:14.654Z,101326.52
2018-05-09T03:06:42.601Z,101326.13
2018-05-09T03:09:10.856Z,101329.61
2018-05-09T03:11:38.713Z,101325.67
2018-05-09T03:14:06.266Z,101324.39
2018-05-09T03:16:33.799Z,101320.02
2018-05-09T03:19:01.399Z,101315.69
2018-05-09T03:21:29.078Z,101308.73
2018-05-09T03:23:56.884Z,101303.97
2018-05-09T03:26:25.411Z,101299.27
2018-05-09T03:28:53.114Z,101301.87
2018-05-09T03:31:20.650Z,101299.36
2018-05-09T03:33:48.234Z,101308.56
2018-05-09T03:36:15.879Z,101307.36
2018-05-09T03:38:43.448Z,101302.70
2018-05-09T03:41:11.160Z,101308.13
2018-05-09T03:43:38.924Z,101300.86
2018-05-09T03:46:06.689Z,101293.16
2018-05-09T03:48:34.263Z,101292.81
2018-05-09T03:51:01.811Z,101292.41
2018-05-09T03:53:29.400Z,101291.55
2018-05-09T03:55:56.930Z,101283.38
2018-05-09T03:58:24.581Z,101290.86
2018-05-09T04:00:52.240Z,101290.43
2018-05-09T04:03:31.651Z,101285.27
2018-05-09T04:06:11.159Z,101297.50
2018-05-09T04:08:51.442Z,101292.78
2018-05-09T04:11:19.088Z,101296.37
2018-05-09T04:13:46.770Z,101293.44
2018-05-09T04:16:14.431Z,101288.67
2018-05-09T04:18:42.267Z,101291.76
2018-05-09T04:21:09.921Z,101282.23
2018-05-09T04:23:38.242Z,101288.32
2018-05-09T04:26:05.843Z,101285.71
2018-05-09T04:28:33.414Z,101284.84
2018-05-09T04:31:01.141Z,101280.45
2018-05-09T04:33:29.012Z,101281.66
2018-05-09T04:35:56.752Z,101271.17
2018-05-09T04:38:24.555Z,101273.28
2018-05-09T04:40:52.147Z,101274.41
2018-05-09T04:43:19.707Z,101276.89
2018-05-09T04:45:47.435Z,101276.36
2018-05-09T04:48:15.283Z,101280.20
2018-05-09T04:50:42.948Z,101272.27
2018-05-09T04:53:10.613Z,101266.50
2018-05-09T04:55:38.388Z,101266.38
2018-05-09T04:58:05.934Z,101263.69
2018-05-09T05:00:33.509Z,101267.06
2018-05-09T05:03:01.115Z,101263.87
2018-05-09T05:05:28.985Z,101267.26
2018-05-09T05:07:56.622Z,101271.49
2018-05-09T05:10:24.307Z,101275.38
2018-05-09T05:12:51.925Z,101270.56
2018-05-09T05:15:19.474Z,101267.45
2018-05-09T05:17:47.117Z,101264.31
2018-05-09T05:20:14.674Z,101260.69
2018-05-09T05:22:42.717Z,101256.75
2018-05-09T05:25:10.484Z,101256.22
2018-05-09T05:27:38.201Z,101264.37
2018-05-09T05:30:06.326Z,101272.12
2018-05-09T05:32:33.879Z,101268.09
2018-05-09T05:35:01.448Z,101272.36
2018-05-09T05:37:29.108Z,101258.78
2018-05-09T05:39:56.755Z,101258.27
2018-05-09T05:42:24.403Z,101255.92
2018-05-09T05:44:52.213Z,101254.14
2018-05-09T05:47:19.869Z,101251.98
2018-05-09T05:49:47.457Z,101244.19
2018-05-09T05:52:15.003Z,101232.97
2018-05-09T05:54:42.521Z,101213.91
2018-05-09T05:57:11.423Z,101207.89
2018-05-09T05:59:39.109Z,101203.22
2018-05-09T06:02:06.803Z,101215.41
2018-05-09T06:04:34.641Z,101207.66
2018-05-09T06:07:02.191Z,101205.50
2018-05-09T06:09:29.707Z,101206.41
2018-05-09T06:11:57.267Z,101203.34
2018-05-09T06:14:24.904Z,101195.41
2018-05-09T06:16:52.507Z,101193.20
2018-05-09T06:19:20.149Z,101180.92
2018-05-09T06:21:47.957Z,101175.66
2018-05-09T06:24:15.610Z,101176.84
2018-05-09T06:26:43.218Z,101171.09
2018-05-09T06:29:10.844Z,101177.53
2018-05-09T06:31:38.710Z,101177.81
2018-05-09T06:34:07.453Z,101164.66
2018-05-09T06:36:35.076Z,101161.91
2018-05-09T06:39:02.881Z,101165.23
2018-05-09T06:41:30.451Z,101164.19
2018-05-09T06:43:58.006Z,101159.22
2018-05-09T06:46:25.602Z,101159.50
2018-05-09T06:48:53.231Z,101157.20
2018-05-09T06:51:20.906Z,101160.98
2018-05-09T06:53:48.657Z,101163.88
2018-05-09T06:56:16.208Z,101162.00
2018-05-09T06:58:44.580Z,101169.17
2018-05-09T07:01:12.123Z,101165.59
2018-05-09T07:03:39.991Z,101162.90
2018-05-09T07:06:07.713Z,101164.09
2018-05-09T07:08:35.461Z,101164.73
2018-05-09T07:11:03.118Z,101171.95
2018-05-09T07:13:33.733Z,101173.50
2018-05-09T07:16:01.390Z,101177.64
2018-05-09T07:18:29.026Z,101179.59
2018-05-09T07:20:56.675Z,101176.63
2018-05-09T07:23:24.499Z,101175.87
2018-05-09T07:25:52.175Z,101175.37
2018-05-09T07:28:19.952Z,101162.70
2018-05-09T07:30:47.639Z,101162.06
2018-05-09T07:33:15.223Z,101161.35
2018-05-09T07:35:42.767Z,101168.09
2018-05-09T07:38:10.351Z,101167.77
2018-05-09T07:40:37.898Z,101168.86
2018-05-09T07:43:05.591Z,101167.30
2018-05-09T07:45:33.416Z,101168.49
2018-05-09T07:48:01.065Z,101167.84
2018-05-09T07:50:28.656Z,101170.59
2018-05-09T07:52:56.216Z,101171.97
2018-05-09T07:55:23.764Z,101166.40
2018-05-09T07:57:51.627Z,101176.84
2018-05-09T08:00:19.325Z,101172.31
2018-05-09T08:02:46.985Z,101167.45
2018-05-09T08:05:14.655Z,101165.14
2018-05-09T08:07:53.391Z,101167.39
2018-05-09T08:10:20.934Z,101156.84
2018-05-09T08:12:48.500Z,101154.84
2018-05-09T08:15:16.078Z,101151.05
2018-05-09T08:17:43.929Z,101146.31
2018-05-09T08:20:11.653Z,101147.27
2018-05-09T08:22:39.275Z,101151.67
2018-05-09T08:25:06.862Z,101152.48
2018-05-09T08:27:34.426Z,101154.58
2018-05-09T08:30:02.773Z,101155.28
2018-05-09T08:32:30.501Z,101163.25
2018-05-09T08:34:58.374Z,101163.23
2018-05-09T08:37:25.937Z,101162.87
2018-05-09T08:39:53.476Z,101169.75
2018-05-09T08:42:21.044Z,101174.60
2018-05-09T08:44:48.583Z,101174.88
2018-05-09T08:47:16.171Z,101174.42
2018-05-09T08:49:43.747Z,101172.19
2018-05-09T08:52:11.412Z,101174.13
2018-05-09T08:54:39.091Z,101170.23
2018-05-09T08:57:06.727Z,101171.80
2018-05-09T08:59:34.215Z,101164.07
2018-05-09T09:02:01.828Z,101170.41
2018-05-09T09:04:29.447Z,101166.84
2018-05-09T09:06:57.051Z,101179.77
2018-05-09T09:18:08.475Z,101160.11
2018-05-09T09:20:36.378Z,101153.40
2018-05-09T09:23:03.919Z,101162.70
2018-05-09T09:34:12.121Z,101149.81
2018-05-09T09:36:39.975Z,101153.11
2018-05-09T09:39:07.591Z,101156.45
2018-05-09T09:41:35.765Z,101150.50
2018-05-09T09:52:40.964Z,101148.48
2018-05-09T09:55:08.519Z,101142.77
2018-05-09T09:57:36.195Z,101143.84
2018-05-09T10:08:51.344Z,101145.50
2018-05-09T10:11:18.964Z,101144.48
2018-05-09T10:13:46.487Z,101145.01
2018-05-09T10:26:47.643Z,101131.27
2018-05-09T10:29:15.195Z,101138.42
2018-05-09T10:31:42.821Z,101125.45
2018-05-09T10:42:27.571Z,101136.82
2018-05-09T10:44:55.275Z,101123.50
2018-05-09T10:47:22.912Z,101111.63
2018-05-09T10:49:50.719Z,101109.14
2018-05-09T11:01:16.913Z,101103.37
2018-05-09T11:03:44.684Z,101095.94
2018-05-09T11:06:12.393Z,101098.88
2018-05-09T11:17:49.999Z,101087.14
2018-05-09T11:20:17.687Z,101094.17
2018-05-09T11:22:45.353Z,101077.41
2018-05-09T11:34:11.984Z,101062.78
2018-05-09T11:36:39.622Z,101067.06
2018-05-09T11:39:07.230Z,101069.42
2018-05-09T11:41:36.256Z,101071.34
2018-05-09T11:52:56.156Z,101053.52
2018-05-09T11:55:23.864Z,101041.94
2018-05-09T11:57:51.497Z,101037.34
2018-05-09T12:09:17.324Z,101031.95
2018-05-09T12:11:44.987Z,101030.32
2018-05-09T12:14:12.662Z,101033.70
2018-05-09T12:25:09.599Z,101021.45
2018-05-09T12:27:37.359Z,101017.36
2018-05-09T12:30:05.023Z,101015.08
2018-05-09T12:32:32.749Z,101013.53
2018-05-09T12:37:47.045Z,100991.98
2018-05-09T12:43:07.693Z,101003.64
2018-05-09T12:45:35.245Z,100993.06
2018-05-09T12:48:02.795Z,100991.95
2018-05-09T12:55:59.561Z,100988.88
2018-05-09T13:01:06.967Z,100980.47
2018-05-09T13:03:34.655Z,100980.89
2018-05-09T13:06:02.460Z,100974.07
2018-05-09T13:16:50.139Z,100963.39
2018-05-09T13:19:17.977Z,100963.47
2018-05-09T13:21:45.719Z,100953.94
2018-05-09T13:24:13.400Z,100947.30
2018-05-09T13:35:06.500Z,100931.86
2018-05-09T13:37:39.465Z,100929.00
2018-05-09T13:40:07.229Z,100925.83
2018-05-09T13:51:29.325Z,100906.34
2018-05-09T13:53:56.996Z,100909.67
2018-05-09T13:56:24.644Z,100910.17
2018-05-09T13:58:52.410Z,100920.03
2018-05-09T14:10:08.936Z,100922.44
2018-05-09T14:12:36.553Z,100915.73
2018-05-09T14:15:04.156Z,100915.34
2018-05-09T14:26:39.760Z,100899.08
2018-05-09T14:29:07.474Z,100905.68
2018-05-09T14:31:35.054Z,100909.05
2018-05-09T14:37:08.774Z,100915.58
2018-05-09T14:39:37.051Z,100911.97
2018-05-09T14:42:04.565Z,100917.22
2018-05-09T14:44:32.058Z,100932.92
2018-05-09T14:46:59.583Z,100903.91
2018-05-09T14:49:27.070Z,100894.67
2018-05-09T14:51:55.637Z,100915.02
2018-05-09T14:54:23.985Z,100913.70
2018-05-09T14:56:52.117Z,100914.63
2018-05-09T14:59:21.371Z,100918.67
2018-05-09T15:01:50.074Z,100909.50
2018-05-09T15:04:17.545Z,100921.70
2018-05-09T15:06:45.060Z,100921.92
2018-05-09T15:09:12.614Z,100925.00
2018-05-09T15:11:41.012Z,100909.42
2018-05-09T15:14:09.232Z,100917.80
2018-05-09T15:16:36.729Z,100912.58
2018-05-09T15:19:04.238Z,100910.63
2018-05-09T15:21:31.721Z,100910.03
2018-05-09T15:23:59.208Z,100915.91
2018-05-09T15:26:27.936Z,100909.72
2018-05-09T15:28:57.092Z,100896.52
2018-05-09T15:31:24.601Z,100893.30
2018-05-09T15:33:52.923Z,100886.53
2018-05-09T15:36:20.434Z,100898.66
2018-05-09T15:38:48.031Z,100896.23
2018-05-09T15:41:15.444Z,100893.02
2018-05-09T15:43:43.941Z,100895.84
2018-05-09T15:46:15.963Z,100897.87
2018-05-09T15:48:47.755Z,100898.05
2018-05-09T15:51:16.938Z,100893.04
2018-05-09T15:53:44.434Z,100892.52
2018-05-09T15:56:11.930Z,100901.55
2018-05-09T15:58:39.426Z,100899.67
2018-05-09T16:01:11.339Z,100889.23
2018-05-09T16:03:39.840Z,100889.75
2018-05-09T16:06:08.791Z,100884.95
2018-05-09T16:08:37.153Z,100877.67
2018-05-09T16:11:04.640Z,100880.54
2018-05-09T16:13:32.157Z,100881.41
2018-05-09T16:15:59.662Z,100879.05
2018-05-09T16:18:33.025Z,100874.98
2018-05-09T16:21:00.806Z,100872.20
2018-05-09T16:23:29.999Z,100865.18
2018-05-09T16:26:00.045Z,100860.86
2018-05-09T16:28:28.098Z,100868.00
2018-05-09T16:30:55.625Z,100868.69
2018-05-09T16:33:23.137Z,100866.67
2018-05-09T16:35:53.131Z,100870.83
2018-05-09T16:38:20.675Z,100865.58
2018-05-09T16:40:48.809Z,100879.12
2018-05-09T16:43:17.206Z,100888.08
2018-05-09T16:45:44.749Z,100883.72
2018-05-09T16:48:12.292Z,100882.36
2018-05-09T16:50:39.782Z,100885.70
2018-05-09T16:53:08.308Z,100879.75
2018-05-09T16:55:36.984Z,100880.11
2018-05-09T16:58:04.626Z,100874.09
2018-05-09T17:00:33.089Z,100872.82
2018-05-09T17:03:00.590Z,100865.89
2018-05-09T17:05:28.162Z,100861.92
2018-05-09T17:07:55.594Z,100865.64
2018-05-09T17:10:24.592Z,100872.33
2018-05-09T17:12:53.054Z,100866.95
2018-05-09T17:15:20.584Z,100852.94
2018-05-09T17:17:48.971Z,100846.56
2018-05-09T17:20:16.514Z,100848.08
2018-05-09T17:22:43.962Z,100848.26
2018-05-09T17:25:11.501Z,100854.55
2018-05-09T17:27:40.639Z,100854.69
2018-05-09T17:30:08.927Z,100852.62
2018-05-09T17:32:36.554Z,100848.05
2018-05-09T17:35:05.071Z,100833.58
2018-05-09T17:37:32.593Z,100826.91
2018-05-09T17:40:00.098Z,100835.09
2018-05-09T17:42:27.587Z,100833.24
2018-05-09T17:44:59.535Z,100832.97
2018-05-09T17:47:31.454Z,100839.34
2018-05-09T17:50:03.124Z,100839.56
2018-05-09T17:52:35.171Z,100843.75
2018-05-09T17:55:02.680Z,100836.85
2018-05-09T17:57:30.192Z,100827.47
2018-05-09T17:59:57.665Z,100828.30
2018-05-09T18:02:25.210Z,100825.27
2018-05-09T18:04:52.977Z,100832.38
2018-05-09T18:07:21.242Z,100820.44
2018-05-09T18:09:48.718Z,100827.41
2018-05-09T18:12:16.217Z,100826.06
2018-05-09T18:14:43.721Z,100827.37
2018-05-09T18:17:11.214Z,100825.86
2018-05-09T18:19:39.815Z,100821.27
2018-05-09T18:22:08.295Z,100829.42
2018-05-09T18:24:37.030Z,100833.15
2018-05-09T18:27:04.665Z,100832.98
2018-05-09T18:29:32.139Z,100837.66
2018-05-09T18:31:59.658Z,100838.34
2018-05-09T18:34:27.147Z,100845.92
2018-05-09T18:36:57.198Z,100838.39
2018-05-09T18:39:24.737Z,100838.22
2018-05-09T18:41:53.141Z,100835.31
2018-05-09T18:44:20.695Z,100836.70
2018-05-09T18:46:48.218Z,100855.70
2018-05-09T18:49:15.730Z,100860.86
2018-05-09T18:51:43.239Z,100865.31
2018-05-09T18:54:15.491Z,100865.77
2018-05-09T18:56:53.277Z,100858.09
2018-05-09T19:01:59.126Z,100848.45
2018-05-09T19:04:26.679Z,100857.95
2018-05-09T19:06:54.249Z,100861.75
2018-05-09T19:09:21.778Z,100871.70
2018-05-09T19:19:34.320Z,100862.38
2018-05-09T19:22:01.814Z,100862.83
2018-05-09T19:24:29.303Z,100869.89
2018-05-09T19:26:56.829Z,100874.44
2018-05-09T19:29:25.363Z,100876.75
2018-05-09T19:32:00.919Z,100873.45
2018-05-09T19:34:31.497Z,100887.58
2018-05-09T19:36:59.001Z,100903.25
2018-05-09T19:39:27.672Z,100899.14
2018-05-09T19:41:55.155Z,100899.33
2018-05-09T19:44:22.691Z,100899.95
2018-05-09T19:52:00.562Z,100901.64
2018-05-09T19:54:31.802Z,100900.82
2018-05-09T19:56:59.278Z,100909.19
2018-05-09T19:59:26.790Z,100903.76
2018-05-09T20:01:54.354Z,100920.11
2018-05-09T20:04:23.635Z,100920.98
2018-05-09T20:06:52.916Z,100931.47
2018-05-09T20:09:21.219Z,100931.69
2018-05-09T20:11:48.799Z,100934.77
2018-05-09T20:14:16.292Z,100952.17
2018-05-09T20:16:43.814Z,100949.05
2018-05-09T20:19:11.327Z,100955.36
2018-05-09T20:29:30.071Z,100965.97
2018-05-09T20:32:09.407Z,100968.74
2018-05-09T20:34:36.928Z,100971.39
2018-05-09T20:37:04.448Z,100982.17
2018-05-09T20:39:32.806Z,100980.30
2018-05-09T20:42:04.483Z,100995.36
2018-05-09T20:44:33.164Z,100997.34
2018-05-09T20:47:00.706Z,101011.39
2018-05-09T20:49:28.225Z,101008.89
2018-05-09T20:51:55.710Z,101006.43
2018-05-09T20:54:23.231Z,101019.52
2018-05-09T21:01:59.258Z,101039.55
2018-05-09T21:04:26.774Z,101050.33
2018-05-09T21:06:54.286Z,101044.18
2018-05-09T21:09:21.830Z,101046.67
2018-05-09T21:17:09.288Z,101042.91
2018-05-09T21:19:36.824Z,101046.63
2018-05-09T21:22:04.310Z,101056.49
2018-05-09T21:24:31.815Z,101055.95
2018-05-09T21:26:59.366Z,101064.13
2018-05-09T21:29:27.857Z,101067.05
2018-05-09T21:31:56.326Z,101071.30
2018-05-09T21:34:25.372Z,101069.86
2018-05-09T21:36:57.054Z,101074.98
2018-05-09T21:39:24.556Z,101071.45
2018-05-09T21:41:52.034Z,101083.98
2018-05-09T21:44:19.541Z,101085.25
2018-05-09T21:52:03.399Z,101082.19
2018-05-09T21:54:35.336Z,101084.83
2018-05-09T21:57:02.831Z,101088.74
2018-05-09T21:59:30.362Z,101082.70
2018-05-09T22:01:57.870Z,101090.52
2018-05-09T22:04:28.143Z,101086.27
2018-05-09T22:06:57.103Z,101088.45
2018-05-09T22:09:27.452Z,101087.18
2018-05-09T22:11:56.174Z,101090.72
2018-05-09T22:14:23.663Z,101082.47
2018-05-09T22:16:51.186Z,101084.68
2018-05-09T22:19:18.689Z,101082.13
2018-05-09T22:21:47.518Z,101084.34
2018-05-09T22:24:15.412Z,101077.84
2018-05-09T22:26:45.365Z,101073.56
2018-05-09T22:29:12.878Z,101084.39
2018-05-09T22:31:40.384Z,101083.59
2018-05-09T22:34:07.900Z,101094.03
2018-05-09T22:36:36.386Z,101087.97
2018-05-09T22:39:04.787Z,101087.59
2018-05-09T22:41:33.235Z,101090.26
2018-05-09T22:44:00.758Z,101099.84
2018-05-09T22:46:29.402Z,101093.77
2018-05-09T22:48:56.910Z,101098.16
2018-05-09T22:51:24.379Z,101105.56
2018-05-09T22:53:51.891Z,101109.05
2018-05-09T22:56:20.404Z,101115.59
2018-05-09T22:58:49.139Z,101119.53
2018-05-09T23:01:16.703Z,101118.28
2018-05-09T23:03:48.258Z,101116.61
2018-05-09T23:06:15.750Z,101126.61
2018-05-09T23:08:43.242Z,101126.27
2018-05-09T23:11:10.725Z,101119.88
2018-05-09T23:13:40.230Z,101130.34
2018-05-09T23:16:12.970Z,101128.24
2018-05-09T23:18:43.221Z,101126.98
2018-05-09T23:21:15.388Z,101128.03
2018-05-09T23:23:42.958Z,101128.08
2018-05-09T23:26:10.401Z,101131.65
2018-05-09T23:28:37.973Z,101127.84
2018-05-09T23:31:05.461Z,101139.69
2018-05-09T23:33:36.303Z,101138.09
2018-05-09T23:36:04.882Z,101145.95
2018-05-09T23:38:35.354Z,101137.36
2018-05-09T23:41:02.860Z,101142.23
2018-05-09T23:43:30.366Z,101140.20
2018-05-09T23:45:57.884Z,101141.59
2018-05-09T23:48:25.408Z,101140.36
2018-05-09T23:50:52.901Z,101136.55
2018-05-09T23:53:21.326Z,101134.93
2018-05-09T23:55:48.884Z,101137.22
2018-05-09T23:58:16.356Z,101139.84
